Queimadas, Brazil
Current Conditions -  °F | °C
As of 10:00 PM on Saturday 22 Nov 2014 (Local Time) from SBPL Reporting Station
Clear Clear  
Wind Chill: 82°   Ceiling: Unl
Heat Index: 86°   Visibility: 6mi
Dew Point: 70°   Wind: 10mph
Humidity: 66%   Direction: 140°SE
Pressure: 29.94"   Gusts: NA
Location:  10.98°S, 39.63°W
Report Text: SBPL 230100Z 14009KT CAVOK 28/21 Q1014
Loading
Personal Weather Stations






























Interactive Weather Map New forecast layout! Learn more

10-Day Weather Forecast

Advertisements
Track Severe Weather on mobile